Time;durP1;ratioP1;P1;durP2;ratioP2;P2;SDS_P1;SDS_P2;PMS_P1;PMS_P2;Temp;Humidity;BMP_temperature;BMP_pressure;BME280_temperature;BME280_humidity;BME280_pressure;Samples;Min_cycle;Max_cycle;Signal;HPM_P1;HPM_P2
2021/01/21 00:01:46;;;;;;;0.63;0.20;;;;;;;;;;5075253;28;20037;-55
2021/01/21 00:04:13;;;;;;;0.20;0.20;;;;;;;;;;5075859;28;20584;-55
2021/01/21 00:06:40;;;;;;;0.67;0.30;;;;;;;;;;5075486;28;20028;-55
2021/01/21 00:09:07;;;;;;;5.47;0.40;;;;;;;;;;5075301;28;20024;-55
2021/01/21 00:11:34;;;;;;;1.40;0.23;;;;;;;;;;5075068;28;20040;-55
2021/01/21 00:14:01;;;;;;;3.80;1.17;;;;;;;;;;5075155;28;20020;-55
2021/01/21 00:16:28;;;;;;;3.83;0.90;;;;;;;;;;5075241;28;20545;-55
2021/01/21 00:18:55;;;;;;;1.17;0.70;;;;;;;;;;5075242;28;20093;-55
2021/01/21 00:21:21;;;;;;;0.60;0.30;;;;;;;;;;5075076;28;20025;-55
2021/01/21 00:23:48;;;;;;;3.20;0.67;;;;;;;;;;5074876;28;20395;-55
2021/01/21 00:26:15;;;;;;;4.13;0.60;;;;;;;;;;5075222;28;20414;-55
2021/01/21 00:28:42;;;;;;;1.83;0.93;;;;;;;;;;5075113;28;20025;-55
2021/01/21 00:31:08;;;;;;;0.67;0.40;;;;;;;;;;5075294;28;20029;-55
2021/01/21 00:33:35;;;;;;;0.60;0.30;;;;;;;;;;5075072;28;20047;-55
2021/01/21 00:36:02;;;;;;;1.50;0.53;;;;;;;;;;5074834;28;20094;-55
2021/01/21 00:38:29;;;;;;;1.67;0.70;;;;;;;;;;5074901;28;20455;-55
2021/01/21 00:40:56;;;;;;;1.73;0.40;;;;;;;;;;5074741;28;20037;-55
2021/01/21 00:43:22;;;;;;;0.60;0.30;;;;;;;;;;5074806;28;20494;-54
2021/01/21 00:45:51;;;;;;;0.67;0.47;;;;;;;;;;5074652;28;20368;-54
2021/01/21 00:48:20;;;;;;;0.73;0.33;;;;;;;;;;5074763;28;20454;-55
2021/01/21 00:50:47;;;;;;;0.23;0.20;;;;;;;;;;5074555;28;20025;-55
2021/01/21 00:53:14;;;;;;;0.57;0.40;;;;;;;;;;5074727;28;20035;-55
2021/01/21 00:55:41;;;;;;;0.70;0.30;;;;;;;;;;5074587;28;20032;-55
2021/01/21 00:58:08;;;;;;;0.63;0.40;;;;;;;;;;5074710;28;20025;-55
2021/01/21 01:00:35;;;;;;;1.20;0.30;;;;;;;;;;5074552;28;20017;-54
2021/01/21 01:03:04;;;;;;;0.30;0.30;;;;;;;;;;5074737;28;20137;-55
2021/01/21 01:05:31;;;;;;;0.53;0.40;;;;;;;;;;5074353;28;20104;-54
2021/01/21 01:07:58;;;;;;;0.90;0.40;;;;;;;;;;5074483;28;20031;-55
2021/01/21 01:10:25;;;;;;;0.40;0.30;;;;;;;;;;5074417;28;20078;-54
2021/01/21 01:12:52;;;;;;;0.50;0.30;;;;;;;;;;5074339;28;20020;-54
2021/01/21 01:15:23;;;;;;;0.93;0.33;;;;;;;;;;5074145;28;20033;-54
2021/01/21 01:17:50;;;;;;;3.37;0.43;;;;;;;;;;5074225;28;20020;-54
2021/01/21 01:20:17;;;;;;;0.17;0.17;;;;;;;;;;5074247;28;20378;-54
2021/01/21 01:22:48;;;;;;;2.07;0.20;;;;;;;;;;5074131;28;20028;-54
2021/01/21 01:25:15;;;;;;;0.77;0.20;;;;;;;;;;5073961;28;20486;-54
2021/01/21 01:27:42;;;;;;;1.30;0.47;;;;;;;;;;5073891;28;20036;-54
2021/01/21 01:30:12;;;;;;;0.50;0.30;;;;;;;;;;5074051;28;20024;-54
2021/01/21 01:32:39;;;;;;;0.53;0.30;;;;;;;;;;5073938;28;20075;-54
2021/01/21 01:35:06;;;;;;;0.80;0.40;;;;;;;;;;5073512;28;20024;-54
2021/01/21 01:37:33;;;;;;;1.37;0.20;;;;;;;;;;5073525;28;20103;-54
2021/01/21 01:40:00;;;;;;;2.47;0.20;;;;;;;;;;5073730;28;20029;-54
2021/01/21 01:42:27;;;;;;;0.67;0.37;;;;;;;;;;5073693;28;20552;-54
2021/01/21 01:44:54;;;;;;;0.63;0.40;;;;;;;;;;5073543;28;20028;-54
2021/01/21 01:47:20;;;;;;;2.17;0.40;;;;;;;;;;5073614;28;20025;-54
2021/01/21 01:49:47;;;;;;;1.17;0.37;;;;;;;;;;5073383;28;20540;-54
2021/01/21 01:52:15;;;;;;;1.10;0.30;;;;;;;;;;5073546;28;20036;-54
2021/01/21 01:54:42;;;;;;;0.27;0.23;;;;;;;;;;5073416;28;20372;-54
2021/01/21 01:57:09;;;;;;;1.57;0.53;;;;;;;;;;5073257;28;20047;-54
2021/01/21 01:59:37;;;;;;;1.80;0.37;;;;;;;;;;5073334;28;20028;-54
2021/01/21 02:02:04;;;;;;;0.30;0.30;;;;;;;;;;5073152;28;20117;-53
2021/01/21 02:04:31;;;;;;;0.53;0.40;;;;;;;;;;5073524;28;20052;-54
2021/01/21 02:06:57;;;;;;;0.50;0.50;;;;;;;;;;5073214;28;20032;-54
2021/01/21 02:09:24;;;;;;;0.40;0.27;;;;;;;;;;5073359;28;20020;-53
2021/01/21 02:11:51;;;;;;;0.60;0.30;;;;;;;;;;5073258;28;20074;-54
2021/01/21 02:14:21;;;;;;;0.53;0.40;;;;;;;;;;5073135;28;20146;-53
2021/01/21 02:16:48;;;;;;;2.57;0.40;;;;;;;;;;5073157;28;20032;-54
2021/01/21 02:19:21;;;;;;;0.17;0.10;;;;;;;;;;5073004;28;20380;-54
2021/01/21 02:22:11;;;;;;;1.93;0.57;;;;;;;;;;5073190;28;20040;-53
2021/01/21 02:24:46;;;;;;;0.63;0.40;;;;;;;;;;5073138;28;20021;-54
2021/01/21 02:27:16;;;;;;;1.37;0.40;;;;;;;;;;5073023;28;20021;-54
2021/01/21 02:29:43;;;;;;;0.73;0.40;;;;;;;;;;5072881;28;20032;-54
2021/01/21 02:32:19;;;;;;;0.53;0.30;;;;;;;;;;5072787;28;20036;-54
2021/01/21 02:34:49;;;;;;;0.30;0.30;;;;;;;;;;5073011;28;20410;-54
2021/01/21 02:37:19;;;;;;;0.40;0.30;;;;;;;;;;5072724;28;20039;-54
2021/01/21 02:39:48;;;;;;;1.67;0.30;;;;;;;;;;5072876;28;20024;-54
2021/01/21 02:42:15;;;;;;;1.13;0.37;;;;;;;;;;5072653;28;20113;-54
2021/01/21 02:44:42;;;;;;;0.60;0.30;;;;;;;;;;5072657;28;20391;-54
2021/01/21 02:47:09;;;;;;;0.47;0.40;;;;;;;;;;5072608;28;20115;-54
2021/01/21 02:49:36;;;;;;;1.47;0.40;;;;;;;;;;5072740;28;20047;-54
2021/01/21 02:52:13;;;;;;;1.33;0.40;;;;;;;;;;5072751;28;20032;-54
2021/01/21 02:54:46;;;;;;;0.63;0.40;;;;;;;;;;5072501;28;20027;-55
2021/01/21 02:57:23;;;;;;;0.77;0.47;;;;;;;;;;5072327;28;20028;-54
2021/01/21 02:59:50;;;;;;;1.43;0.40;;;;;;;;;;5054598;28;20048;-54
2021/01/21 03:02:18;;;;;;;2.70;0.40;;;;;;;;;;5072528;28;20029;-55
2021/01/21 03:04:46;;;;;;;0.50;0.40;;;;;;;;;;5072704;28;20115;-55
2021/01/21 03:07:15;;;;;;;0.80;0.50;;;;;;;;;;5072577;28;20028;-54
2021/01/21 03:09:45;;;;;;;0.97;0.50;;;;;;;;;;5054902;28;20029;-54
2021/01/21 03:12:22;;;;;;;0.20;0.20;;;;;;;;;;5072488;28;20067;-54
2021/01/21 03:14:50;;;;;;;0.83;0.30;;;;;;;;;;5072505;28;20071;-54
2021/01/21 03:17:18;;;;;;;0.57;0.30;;;;;;;;;;5072387;28;20029;-54
2021/01/21 03:19:44;;;;;;;0.47;0.37;;;;;;;;;;5072530;28;20028;-54
2021/01/21 03:22:11;;;;;;;0.57;0.40;;;;;;;;;;5072364;28;20044;-54
2021/01/21 03:24:38;;;;;;;0.77;0.40;;;;;;;;;;5072361;28;20029;-54
2021/01/21 03:27:05;;;;;;;1.43;0.40;;;;;;;;;;5072282;28;20387;-53
2021/01/21 03:29:32;;;;;;;0.50;0.30;;;;;;;;;;5072269;28;20033;-54
2021/01/21 03:31:59;;;;;;;1.37;0.40;;;;;;;;;;5072294;28;20081;-53
2021/01/21 03:34:25;;;;;;;1.60;0.50;;;;;;;;;;5072230;28;20033;-53
2021/01/21 03:36:52;;;;;;;1.87;0.47;;;;;;;;;;5072180;28;20063;-53
2021/01/21 03:39:19;;;;;;;2.10;0.27;;;;;;;;;;5072255;28;20093;-54
2021/01/21 03:41:46;;;;;;;0.20;0.20;;;;;;;;;;5072269;28;20043;-54
2021/01/21 03:44:12;;;;;;;0.30;0.27;;;;;;;;;;5072340;28;20024;-54
2021/01/21 03:46:39;;;;;;;1.70;0.50;;;;;;;;;;5071983;28;20029;-54
2021/01/21 03:49:06;;;;;;;1.00;0.50;;;;;;;;;;5072238;28;20070;-53
2021/01/21 03:51:33;;;;;;;0.70;0.30;;;;;;;;;;5072009;28;20029;-54
2021/01/21 03:53:59;;;;;;;0.93;0.30;;;;;;;;;;5072173;28;20548;-54
2021/01/21 03:56:26;;;;;;;0.50;0.43;;;;;;;;;;5072036;28;20031;-54
2021/01/21 03:58:53;;;;;;;0.43;0.30;;;;;;;;;;5072785;28;20017;-54
2021/01/21 04:01:20;;;;;;;1.07;0.50;;;;;;;;;;5075572;28;20067;-53
2021/01/21 04:03:46;;;;;;;1.13;0.43;;;;;;;;;;5075902;28;20068;-54
2021/01/21 04:06:13;;;;;;;1.00;0.50;;;;;;;;;;5075594;28;20021;-54
2021/01/21 04:08:40;;;;;;;1.47;0.50;;;;;;;;;;5075442;28;20052;-54
2021/01/21 04:11:07;;;;;;;1.73;0.73;;;;;;;;;;5075343;28;20013;-53
2021/01/21 04:13:33;;;;;;;2.03;0.90;;;;;;;;;;5075466;28;20021;-53
2021/01/21 04:16:00;;;;;;;0.90;0.67;;;;;;;;;;5075276;28;20024;-53
2021/01/21 04:18:27;;;;;;;2.40;0.90;;;;;;;;;;5076012;28;20032;-54
2021/01/21 04:20:54;;;;;;;4.50;0.80;;;;;;;;;;5075193;28;20021;-53
2021/01/21 04:23:21;;;;;;;1.67;0.80;;;;;;;;;;5075281;28;20078;-54
2021/01/21 04:25:47;;;;;;;1.27;0.53;;;;;;;;;;5075115;28;20048;-53
2021/01/21 04:28:14;;;;;;;2.67;0.90;;;;;;;;;;5075254;28;20021;-54
2021/01/21 04:30:41;;;;;;;1.60;0.90;;;;;;;;;;5075068;28;20016;-54
2021/01/21 04:33:08;;;;;;;1.20;0.70;;;;;;;;;;5075182;28;20029;-54
2021/01/21 04:35:35;;;;;;;1.57;0.60;;;;;;;;;;5074893;28;20537;-54
2021/01/21 04:38:01;;;;;;;0.70;0.60;;;;;;;;;;5075014;28;20032;-55
2021/01/21 04:40:29;;;;;;;2.73;1.00;;;;;;;;;;5074837;28;20111;-53
2021/01/21 04:42:55;;;;;;;0.97;0.60;;;;;;;;;;5075100;28;20476;-54
2021/01/21 04:45:22;;;;;;;1.70;0.97;;;;;;;;;;5074928;28;20487;-54
2021/01/21 04:47:49;;;;;;;1.60;0.83;;;;;;;;;;5074721;28;20107;-53
2021/01/21 04:50:16;;;;;;;3.00;1.03;;;;;;;;;;5074831;28;20099;-53
2021/01/21 04:52:45;;;;;;;2.17;1.20;;;;;;;;;;5074735;28;20434;-53
2021/01/21 04:55:15;;;;;;;1.57;0.70;;;;;;;;;;5074570;28;20025;-53
2021/01/21 04:57:50;;;;;;;2.20;1.20;;;;;;;;;;5074728;28;20112;-54
2021/01/21 05:00:17;;;;;;;5.03;1.50;;;;;;;;;;5074655;28;20017;-54
2021/01/21 05:02:44;;;;;;;2.97;1.57;;;;;;;;;;5074423;28;20040;-53
2021/01/21 05:05:11;;;;;;;6.67;2.87;;;;;;;;;;5074241;28;20614;-54
2021/01/21 05:07:41;;;;;;;2.67;1.53;;;;;;;;;;5074560;28;20040;-53
2021/01/21 05:10:09;;;;;;;5.77;2.20;;;;;;;;;;5073719;28;20036;-54
2021/01/21 05:12:36;;;;;;;7.93;1.73;;;;;;;;;;5074079;28;20032;-54
2021/01/21 05:15:04;;;;;;;3.07;1.40;;;;;;;;;;5074246;28;20171;-54
2021/01/21 05:17:31;;;;;;;5.07;1.90;;;;;;;;;;5074330;28;20021;-54
2021/01/21 05:19:57;;;;;;;7.03;1.63;;;;;;;;;;5074131;28;20379;-54
2021/01/21 05:22:24;;;;;;;5.17;2.17;;;;;;;;;;5074078;28;20028;-54
2021/01/21 05:24:51;;;;;;;3.47;1.47;;;;;;;;;;5074050;28;20104;-54
2021/01/21 05:27:18;;;;;;;4.27;1.83;;;;;;;;;;5073845;28;20021;-54
2021/01/21 05:29:46;;;;;;;6.53;1.53;;;;;;;;;;5073925;28;20016;-54
2021/01/21 05:32:17;;;;;;;7.27;2.20;;;;;;;;;;5074016;28;20052;-54
2021/01/21 05:34:45;;;;;;;5.97;2.00;;;;;;;;;;5073889;28;20548;-54
2021/01/21 05:37:12;;;;;;;6.07;2.20;;;;;;;;;;5073857;28;20017;-53
2021/01/21 05:39:45;;;;;;;5.33;1.60;;;;;;;;;;5073702;28;20116;-54
2021/01/21 05:42:12;;;;;;;3.27;1.63;;;;;;;;;;5073744;28;20108;-54
2021/01/21 05:44:40;;;;;;;8.20;2.40;;;;;;;;;;5073921;28;20356;-54
2021/01/21 05:47:07;;;;;;;6.17;1.97;;;;;;;;;;5073529;28;20052;-54
2021/01/21 05:49:34;;;;;;;4.77;1.57;;;;;;;;;;5073532;28;20017;-54
2021/01/21 05:52:01;;;;;;;6.33;2.00;;;;;;;;;;5073586;28;20051;-54
2021/01/21 05:54:29;;;;;;;3.90;1.57;;;;;;;;;;5073503;28;20027;-54
2021/01/21 05:56:57;;;;;;;4.23;1.60;;;;;;;;;;5073365;28;20382;-54
2021/01/21 05:59:25;;;;;;;7.03;1.73;;;;;;;;;;5073535;28;20467;-54
2021/01/21 06:01:53;;;;;;;4.07;1.40;;;;;;;;;;5073239;28;20490;-54
2021/01/21 06:04:20;;;;;;;5.40;1.40;;;;;;;;;;5073654;28;20090;-54
2021/01/21 06:06:47;;;;;;;3.70;1.57;;;;;;;;;;5073148;28;20111;-54
2021/01/21 06:09:16;;;;;;;4.93;1.40;;;;;;;;;;5073349;28;20090;-54
2021/01/21 06:11:44;;;;;;;3.63;1.63;;;;;;;;;;5073247;28;20028;-54
2021/01/21 06:14:13;;;;;;;7.67;1.60;;;;;;;;;;5073055;28;20245;-54
2021/01/21 06:16:42;;;;;;;3.97;1.63;;;;;;;;;;5073012;28;20040;-54
2021/01/21 06:19:09;;;;;;;4.30;1.37;;;;;;;;;;5050192;28;20344;-54
2021/01/21 06:21:36;;;;;;;3.53;1.63;;;;;;;;;;5072642;28;20075;-54
2021/01/21 06:24:06;;;;;;;4.90;1.43;;;;;;;;;;5073158;28;20471;-54
2021/01/21 06:26:42;;;;;;;3.33;1.47;;;;;;;;;;5073220;28;20288;-54
2021/01/21 06:29:11;;;;;;;4.13;1.70;;;;;;;;;;5073010;28;20031;-54
2021/01/21 06:31:40;;;;;;;3.33;1.47;;;;;;;;;;5072980;28;20250;-54
2021/01/21 06:34:11;;;;;;;5.07;1.67;;;;;;;;;;5072918;28;20162;-54
2021/01/21 06:36:43;;;;;;;5.10;1.73;;;;;;;;;;5072790;28;20281;-53
2021/01/21 06:39:10;;;;;;;4.93;1.20;;;;;;;;;;5072792;28;20736;-54
2021/01/21 06:41:41;;;;;;;5.47;1.80;;;;;;;;;;5072639;28;20367;-54
2021/01/21 06:44:08;;;;;;;3.47;1.67;;;;;;;;;;5072899;28;20265;-53
2021/01/21 06:46:35;;;;;;;3.33;1.40;;;;;;;;;;5072737;28;20245;-53
2021/01/21 06:49:02;;;;;;;3.87;1.60;;;;;;;;;;5072816;28;20245;-54
2021/01/21 06:51:29;;;;;;;5.37;1.47;;;;;;;;;;5072579;28;20245;-54
2021/01/21 06:53:56;;;;;;;7.47;2.00;;;;;;;;;;5072734;28;20332;-54
2021/01/21 06:56:32;;;;;;;4.47;1.33;;;;;;;;;;5072566;28;20256;-53
2021/01/21 06:58:59;;;;;;;5.87;1.90;;;;;;;;;;5072623;28;20600;-54
2021/01/21 07:01:32;;;;;;;3.63;1.53;;;;;;;;;;5054652;28;20810;-54
2021/01/21 07:03:59;;;;;;;3.33;1.30;;;;;;;;;;5072712;28;20331;-53
2021/01/21 07:06:26;;;;;;;5.43;1.40;;;;;;;;;;5072565;28;20261;-54
2021/01/21 07:09:09;;;;;;;2.90;1.20;;;;;;;;;;5072521;28;20242;-54
2021/01/21 07:11:36;;;;;;;2.53;1.50;;;;;;;;;;5072652;28;20288;-53
2021/01/21 07:14:05;;;;;;;2.20;1.20;;;;;;;;;;5072473;28;20238;-54
2021/01/21 07:16:33;;;;;;;2.93;1.40;;;;;;;;;;5072330;28;20249;-53
2021/01/21 07:19:01;;;;;;;6.57;1.40;;;;;;;;;;5072405;28;20245;-53
2021/01/21 07:21:32;;;;;;;3.23;1.27;;;;;;;;;;5072403;28;20288;-53
2021/01/21 07:23:59;;;;;;;5.83;1.20;;;;;;;;;;5072453;28;20254;-53
2021/01/21 07:26:30;;;;;;;2.63;0.90;;;;;;;;;;5072202;28;20261;-53
2021/01/21 07:28:56;;;;;;;3.17;1.00;;;;;;;;;;5072394;28;20257;-54
2021/01/21 07:31:23;;;;;;;1.73;0.90;;;;;;;;;;5054328;28;20276;-53
2021/01/21 07:34:10;;;;;;;1.83;1.00;;;;;;;;;;5073046;28;20288;-53
2021/01/21 07:36:37;;;;;;;4.13;0.83;;;;;;;;;;5075981;28;20617;-54
2021/01/21 07:39:03;;;;;;;2.17;1.03;;;;;;;;;;5075947;28;20257;-53
2021/01/21 07:41:42;;;;;;;2.20;0.97;;;;;;;;;;5075992;28;20273;-53
2021/01/21 07:44:09;;;;;;;2.63;1.13;;;;;;;;;;5075919;28;20728;-54
2021/01/21 07:46:36;;;;;;;3.10;1.40;;;;;;;;;;5075802;28;20289;-53
2021/01/21 07:49:26;;;;;;;1.80;1.10;;;;;;;;;;5075825;28;20728;-53
2021/01/21 07:52:03;;;;;;;2.20;1.20;;;;;;;;;;5063237;28;20716;-53
2021/01/21 07:54:30;;;;;;;1.73;0.83;;;;;;;;;;5075866;28;20337;-53
2021/01/21 07:56:57;;;;;;;2.13;1.03;;;;;;;;;;5075616;28;20268;-53
2021/01/21 07:59:24;;;;;;;1.63;0.83;;;;;;;;;;5075684;28;20336;-53
2021/01/21 08:01:58;;;;;;;1.83;0.90;;;;;;;;;;5075502;28;20286;-54
2021/01/21 08:04:24;;;;;;;1.83;0.90;;;;;;;;;;5075739;28;20293;-53
2021/01/21 08:06:57;;;;;;;1.47;1.00;;;;;;;;;;5075463;28;20258;-53
2021/01/21 08:09:25;;;;;;;1.13;0.70;;;;;;;;;;5075537;28;20257;-53
2021/01/21 08:11:52;;;;;;;2.83;1.00;;;;;;;;;;5075807;28;20273;-53
2021/01/21 08:14:31;;;;;;;2.53;1.10;;;;;;;;;;5075293;28;20262;-53
2021/01/21 08:17:03;;;;;;;8.13;1.27;;;;;;;;;;5075164;28;20695;-53
2021/01/21 08:19:30;;;;;;;2.20;1.00;;;;;;;;;;5075256;28;20296;-53
2021/01/21 08:22:23;;;;;;;1.93;0.90;;;;;;;;;;5075146;28;20292;-53
2021/01/21 08:25:02;;;;;;;1.63;1.00;;;;;;;;;;5071178;28;20289;-53
2021/01/21 08:27:44;;;;;;;1.30;0.93;;;;;;;;;;5075130;28;20256;-53
2021/01/21 08:30:18;;;;;;;1.17;0.83;;;;;;;;;;5075118;28;20311;-53
2021/01/21 08:32:46;;;;;;;2.10;1.27;;;;;;;;;;5075207;28;20281;-54
2021/01/21 08:35:14;;;;;;;1.63;0.70;;;;;;;;;;5075127;28;20767;-53
2021/01/21 08:37:41;;;;;;;1.70;0.80;;;;;;;;;;5074984;28;20645;-53
2021/01/21 08:40:08;;;;;;;2.77;1.00;;;;;;;;;;5075007;28;20655;-53
2021/01/21 08:42:36;;;;;;;1.63;0.90;;;;;;;;;;5074994;28;20285;-53
2021/01/21 08:45:04;;;;;;;1.63;0.80;;;;;;;;;;5074663;28;20255;-53
2021/01/21 08:47:50;;;;;;;2.83;0.80;;;;;;;;;;5074841;28;20735;-53
2021/01/21 08:50:20;;;;;;;1.77;0.90;;;;;;;;;;5074647;28;20262;-53
2021/01/21 08:52:56;;;;;;;1.40;0.80;;;;;;;;;;5074707;28;20242;-53
2021/01/21 08:55:23;;;;;;;1.27;0.57;;;;;;;;;;5074623;28;20612;-53
2021/01/21 08:58:03;;;;;;;1.60;0.80;;;;;;;;;;5074575;28;20744;-53
2021/01/21 09:00:30;;;;;;;1.17;0.77;;;;;;;;;;5074561;28;20258;-53
2021/01/21 09:02:58;;;;;;;1.30;1.00;;;;;;;;;;5074483;28;20310;-54
2021/01/21 09:05:25;;;;;;;3.20;0.93;;;;;;;;;;5074594;28;20366;-53
2021/01/21 09:07:52;;;;;;;1.37;0.97;;;;;;;;;;5074335;28;20253;-53
2021/01/21 09:10:19;;;;;;;1.40;0.90;;;;;;;;;;5074472;28;20260;-53
2021/01/21 09:12:46;;;;;;;0.97;0.60;;;;;;;;;;5074327;28;20245;-53
2021/01/21 09:15:14;;;;;;;2.80;1.20;;;;;;;;;;5074280;28;20340;-53
2021/01/21 09:17:41;;;;;;;1.60;0.83;;;;;;;;;;5074241;28;20261;-53
2021/01/21 09:20:27;;;;;;;1.83;0.90;;;;;;;;;;5074274;28;20263;-53
2021/01/21 09:22:54;;;;;;;1.48;0.95;;;;;;;;;;5074048;28;20285;-53
2021/01/21 09:25:24;;;;;;;1.53;0.90;;;;;;;;;;5073997;28;20031;-53
2021/01/21 09:27:57;;;;;;;1.07;0.80;;;;;;;;;;5074107;28;20288;-53
2021/01/21 09:30:27;;;;;;;2.20;0.83;;;;;;;;;;5073893;28;20249;-53
2021/01/21 09:32:53;;;;;;;1.37;0.90;;;;;;;;;;5074321;28;20250;-53
2021/01/21 09:35:21;;;;;;;3.07;1.10;;;;;;;;;;5073865;28;20285;-53
2021/01/21 09:37:53;;;;;;;2.47;0.90;;;;;;;;;;5073851;28;20249;-54
2021/01/21 09:40:24;;;;;;;1.47;0.87;;;;;;;;;;5073739;28;20666;-54
2021/01/21 09:42:52;;;;;;;1.60;0.80;;;;;;;;;;5073549;28;20342;-53
2021/01/21 09:45:19;;;;;;;2.77;1.00;;;;;;;;;;5073591;28;20249;-53
2021/01/21 09:47:46;;;;;;;1.97;1.00;;;;;;;;;;5073569;28;20336;-54
2021/01/21 09:50:13;;;;;;;1.27;0.90;;;;;;;;;;5073746;28;20253;-53
2021/01/21 09:52:40;;;;;;;1.23;0.77;;;;;;;;;;5073445;28;20250;-53
2021/01/21 09:55:08;;;;;;;1.33;0.83;;;;;;;;;;5073521;28;20254;-53
2021/01/21 09:57:34;;;;;;;1.43;0.97;;;;;;;;;;5072932;28;20780;-53
2021/01/21 10:00:01;;;;;;;2.20;1.30;;;;;;;;;;5073229;28;20593;-53
2021/01/21 10:02:28;;;;;;;2.37;1.03;;;;;;;;;;5073723;28;20314;-53
2021/01/21 10:04:55;;;;;;;1.47;1.00;;;;;;;;;;5073500;28;20292;-53
2021/01/21 10:07:22;;;;;;;2.87;0.77;;;;;;;;;;5073188;28;20735;-53
2021/01/21 10:09:48;;;;;;;2.37;1.30;;;;;;;;;;5073171;28;20246;-53
2021/01/21 10:12:15;;;;;;;2.97;1.10;;;;;;;;;;5073141;28;20451;-53
2021/01/21 10:14:42;;;;;;;1.43;0.80;;;;;;;;;;5073171;28;20256;-53
2021/01/21 10:17:09;;;;;;;2.13;1.13;;;;;;;;;;5073126;28;20285;-53
2021/01/21 10:19:36;;;;;;;1.67;1.00;;;;;;;;;;5073056;28;20256;-53
2021/01/21 10:22:10;;;;;;;0.87;0.70;;;;;;;;;;5073074;28;20304;-53
2021/01/21 10:24:38;;;;;;;1.13;1.00;;;;;;;;;;5072905;28;20760;-53
2021/01/21 10:27:05;;;;;;;2.23;1.17;;;;;;;;;;5072917;28;20253;-53
2021/01/21 10:29:32;;;;;;;1.60;1.10;;;;;;;;;;5073165;28;20261;-53
2021/01/21 10:31:59;;;;;;;1.50;0.90;;;;;;;;;;5073000;28;20249;-53
2021/01/21 10:34:26;;;;;;;2.17;1.10;;;;;;;;;;5072955;28;20257;-53
2021/01/21 10:36:52;;;;;;;1.97;1.00;;;;;;;;;;5072841;28;20250;-53
2021/01/21 10:39:19;;;;;;;1.47;1.10;;;;;;;;;;5072980;28;20640;-53
2021/01/21 10:41:46;;;;;;;2.17;1.30;;;;;;;;;;5072854;28;20280;-53
2021/01/21 10:44:13;;;;;;;1.90;1.17;;;;;;;;;;5072801;28;20246;-53
2021/01/21 10:46:39;;;;;;;2.07;1.20;;;;;;;;;;5072628;28;20265;-53
2021/01/21 10:49:06;;;;;;;3.47;1.20;;;;;;;;;;5072386;28;20604;-53
2021/01/21 10:51:33;;;;;;;5.10;1.50;;;;;;;;;;5072678;28;20249;-53
2021/01/21 10:54:00;;;;;;;3.63;1.50;;;;;;;;;;5054772;28;20606;-53
2021/01/21 10:56:26;;;;;;;1.40;1.00;;;;;;;;;;5072475;28;20254;-53
2021/01/21 10:58:53;;;;;;;2.80;1.00;;;;;;;;;;5072613;28;20340;-53
2021/01/21 11:01:20;;;;;;;2.43;1.20;;;;;;;;;;5072661;28;20280;-53
2021/01/21 11:03:47;;;;;;;2.07;0.90;;;;;;;;;;5072671;28;20267;-54
2021/01/21 11:06:14;;;;;;;1.23;0.70;;;;;;;;;;5072558;28;20249;-53
2021/01/21 11:08:40;;;;;;;1.57;1.00;;;;;;;;;;5073208;28;20299;-53
2021/01/21 11:11:07;;;;;;;2.70;1.27;;;;;;;;;;5076764;28;20264;-53
2021/01/21 11:13:34;;;;;;;1.77;1.13;;;;;;;;;;5076618;28;20257;-53
2021/01/21 11:16:01;;;;;;;1.97;1.10;;;;;;;;;;5076644;28;20288;-53
2021/01/21 11:18:27;;;;;;;3.17;1.23;;;;;;;;;;5076476;28;20361;-53
2021/01/21 11:20:54;;;;;;;3.43;1.23;;;;;;;;;;5076484;28;20257;-53
2021/01/21 11:23:21;;;;;;;1.23;1.00;;;;;;;;;;5076531;28;20301;-53
2021/01/21 11:25:48;;;;;;;1.80;1.23;;;;;;;;;;5076238;28;20249;-53
2021/01/21 11:28:20;;;;;;;1.37;1.00;;;;;;;;;;5076309;28;20743;-53
2021/01/21 11:30:50;;;;;;;2.83;1.20;;;;;;;;;;5076340;28;20592;-53
2021/01/21 11:33:17;;;;;;;1.57;1.10;;;;;;;;;;5076254;28;20257;-53
2021/01/21 11:35:45;;;;;;;2.67;1.07;;;;;;;;;;5076061;28;20256;-53
2021/01/21 11:38:12;;;;;;;2.17;1.20;;;;;;;;;;5076125;28;20658;-53
2021/01/21 11:40:40;;;;;;;1.80;1.20;;;;;;;;;;5076119;28;20241;-53
2021/01/21 11:43:07;;;;;;;4.40;1.27;;;;;;;;;;5075944;28;20281;-53
2021/01/21 11:45:34;;;;;;;1.50;0.90;;;;;;;;;;5076015;28;20285;-53
2021/01/21 11:48:01;;;;;;;2.53;1.30;;;;;;;;;;5075886;28;20344;-53
2021/01/21 11:50:28;;;;;;;1.90;1.10;;;;;;;;;;5075939;28;20328;-53
2021/01/21 11:52:55;;;;;;;1.83;1.10;;;;;;;;;;5075746;28;20258;-53
2021/01/21 11:55:24;;;;;;;2.70;1.40;;;;;;;;;;5075736;28;20249;-53
2021/01/21 11:57:51;;;;;;;2.00;1.23;;;;;;;;;;5075715;28;20269;-53
2021/01/21 12:00:18;;;;;;;2.60;1.00;;;;;;;;;;5075770;28;20314;-53
2021/01/21 12:02:44;;;;;;;2.80;1.27;;;;;;;;;;5075490;28;20368;-53
2021/01/21 12:05:11;;;;;;;2.47;1.13;;;;;;;;;;5075737;28;20292;-53
2021/01/21 12:07:38;;;;;;;1.90;1.20;;;;;;;;;;5075507;28;20272;-53
2021/01/21 12:10:06;;;;;;;2.10;1.27;;;;;;;;;;5075615;28;20660;-53
2021/01/21 12:12:33;;;;;;;3.20;1.20;;;;;;;;;;5075498;28;20315;-53
2021/01/21 12:15:00;;;;;;;1.67;1.30;;;;;;;;;;5075623;28;20254;-53
2021/01/21 12:17:27;;;;;;;3.37;1.30;;;;;;;;;;5075348;28;20249;-53
2021/01/21 12:19:53;;;;;;;2.63;1.50;;;;;;;;;;5074759;28;20258;-53
2021/01/21 12:22:21;;;;;;;3.20;1.60;;;;;;;;;;5075115;28;20289;-53
2021/01/21 12:24:48;;;;;;;1.93;1.30;;;;;;;;;;5075329;28;20314;-53
2021/01/21 12:27:15;;;;;;;1.77;1.10;;;;;;;;;;5075082;28;20654;-53
2021/01/21 12:29:42;;;;;;;2.67;1.17;;;;;;;;;;5075268;28;20257;-53
2021/01/21 12:32:08;;;;;;;1.90;1.10;;;;;;;;;;5075365;28;20245;-53
2021/01/21 12:34:35;;;;;;;3.20;1.80;;;;;;;;;;5075106;28;20265;-53
2021/01/21 12:37:02;;;;;;;2.93;1.57;;;;;;;;;;5074965;28;20256;-53
2021/01/21 12:39:29;;;;;;;3.10;2.00;;;;;;;;;;5074993;28;20743;-53
2021/01/21 12:41:55;;;;;;;4.00;1.70;;;;;;;;;;5074839;28;20289;-53
2021/01/21 12:44:22;;;;;;;2.73;1.53;;;;;;;;;;5074870;28;20299;-53
2021/01/21 12:46:49;;;;;;;2.63;1.53;;;;;;;;;;5074801;28;20315;-53
2021/01/21 12:49:16;;;;;;;3.70;2.13;;;;;;;;;;5074898;28;20252;-53
2021/01/21 12:51:43;;;;;;;6.10;1.80;;;;;;;;;;5074681;28;20345;-53
2021/01/21 12:54:09;;;;;;;4.37;1.90;;;;;;;;;;5074785;28;20412;-53
2021/01/21 12:56:36;;;;;;;4.17;1.80;;;;;;;;;;5074531;28;20260;-53
2021/01/21 12:59:03;;;;;;;2.67;1.33;;;;;;;;;;5074630;28;20760;-53
2021/01/21 13:01:30;;;;;;;2.33;1.43;;;;;;;;;;5074538;28;20299;-53
2021/01/21 13:03:57;;;;;;;3.30;1.60;;;;;;;;;;5074961;28;20304;-54
2021/01/21 13:06:23;;;;;;;2.27;1.50;;;;;;;;;;5074464;28;20586;-53
2021/01/21 13:08:50;;;;;;;3.17;1.67;;;;;;;;;;5074610;28;20292;-53
2021/01/21 13:11:17;;;;;;;3.43;1.40;;;;;;;;;;5074520;28;20348;-53
2021/01/21 13:13:44;;;;;;;1.87;1.20;;;;;;;;;;5074237;28;20296;-53
2021/01/21 13:16:11;;;;;;;2.10;1.37;;;;;;;;;;5074182;28;20245;-53
2021/01/21 13:18:38;;;;;;;2.20;1.40;;;;;;;;;;5074350;28;20268;-53
2021/01/21 13:21:05;;;;;;;2.27;1.43;;;;;;;;;;5074190;28;20250;-53
2021/01/21 13:23:32;;;;;;;1.90;1.17;;;;;;;;;;5074246;28;20254;-53
2021/01/21 13:25:59;;;;;;;4.17;1.63;;;;;;;;;;5073994;28;20237;-53
2021/01/21 13:28:25;;;;;;;2.03;1.20;;;;;;;;;;5074132;28;20748;-53
2021/01/21 13:30:52;;;;;;;4.13;1.77;;;;;;;;;;5073678;28;20242;-53
2021/01/21 13:33:19;;;;;;;2.23;1.43;;;;;;;;;;5073476;28;20254;-53
2021/01/21 13:35:48;;;;;;;1.67;1.10;;;;;;;;;;5073821;28;20242;-53
2021/01/21 13:38:15;;;;;;;3.23;1.37;;;;;;;;;;5073837;28;20735;-53
2021/01/21 13:40:42;;;;;;;3.17;1.47;;;;;;;;;;5073704;28;20252;-53
2021/01/21 13:43:09;;;;;;;3.33;1.57;;;;;;;;;;5073637;28;20354;-53
2021/01/21 13:45:35;;;;;;;3.27;1.30;;;;;;;;;;5073821;28;20590;-53
2021/01/21 13:48:03;;;;;;;3.17;1.70;;;;;;;;;;5073654;28;20288;-53
2021/01/21 13:50:30;;;;;;;3.20;1.90;;;;;;;;;;5073585;28;20796;-53
2021/01/21 13:52:57;;;;;;;7.53;2.00;;;;;;;;;;5073455;28;20728;-54
2021/01/21 13:55:24;;;;;;;4.10;2.20;;;;;;;;;;5073441;28;20253;-54
2021/01/21 13:57:50;;;;;;;5.87;2.43;;;;;;;;;;5073280;28;20331;-54
2021/01/21 14:00:17;;;;;;;5.63;3.00;;;;;;;;;;5073357;28;20276;-54
2021/01/21 14:02:44;;;;;;;5.73;2.57;;;;;;;;;;5073357;28;20763;-53
2021/01/21 14:05:11;;;;;;;10.93;3.00;;;;;;;;;;5073443;28;20282;-54
2021/01/21 14:07:38;;;;;;;3.93;2.37;;;;;;;;;;5073246;28;20263;-54
2021/01/21 14:10:05;;;;;;;6.90;4.50;;;;;;;;;;5073161;28;20250;-54
2021/01/21 14:12:32;;;;;;;3.87;1.83;;;;;;;;;;5073160;28;20731;-54
2021/01/21 14:14:59;;;;;;;4.47;2.23;;;;;;;;;;5073186;28;20268;-54
2021/01/21 14:17:26;;;;;;;5.67;2.17;;;;;;;;;;5073115;28;20250;-54
2021/01/21 14:19:52;;;;;;;3.70;1.83;;;;;;;;;;5073091;28;20681;-54
2021/01/21 14:22:19;;;;;;;3.10;1.70;;;;;;;;;;5072912;28;20690;-54
2021/01/21 14:24:46;;;;;;;3.23;1.60;;;;;;;;;;5072941;28;20262;-54
2021/01/21 14:27:13;;;;;;;1.80;1.20;;;;;;;;;;5072953;28;20246;-54
2021/01/21 14:29:39;;;;;;;2.80;1.40;;;;;;;;;;5073107;28;20262;-54
2021/01/21 14:32:06;;;;;;;2.20;1.27;;;;;;;;;;5073140;28;20734;-54
2021/01/21 14:34:33;;;;;;;3.43;1.33;;;;;;;;;;5072751;28;20728;-54
2021/01/21 14:37:01;;;;;;;4.00;1.87;;;;;;;;;;5072827;28;20787;-53
2021/01/21 14:39:28;;;;;;;4.83;2.00;;;;;;;;;;5054870;28;20262;-53
2021/01/21 14:41:55;;;;;;;3.70;1.50;;;;;;;;;;5072817;28;20291;-54
2021/01/21 14:44:22;;;;;;;4.17;1.80;;;;;;;;;;5072435;28;20107;-54
2021/01/21 14:46:49;;;;;;;2.33;1.30;;;;;;;;;;5072724;28;20051;-54
2021/01/21 14:49:15;;;;;;;3.63;1.57;;;;;;;;;;5072637;28;20029;-54